sensor_id;sensor_type;location;lat;lon;timestamp;temperature;humidity
67557;DHT22;54387;53.526;49.300;2023-02-21T00:00:58;-5.10;63.20
67557;DHT22;54387;53.526;49.300;2023-02-21T00:03:43;-5.10;63.20
67557;DHT22;54387;53.526;49.300;2023-02-21T00:06:27;-5.10;63.10
67557;DHT22;54387;53.526;49.300;2023-02-21T00:09:11;-5.00;63.20
67557;DHT22;54387;53.526;49.300;2023-02-21T00:11:56;-5.00;63.10
67557;DHT22;54387;53.526;49.300;2023-02-21T00:14:41;-5.10;63.10
67557;DHT22;54387;53.526;49.300;2023-02-21T00:17:25;-5.10;63.10
67557;DHT22;54387;53.526;49.300;2023-02-21T00:20:10;-5.10;63.10
67557;DHT22;54387;53.526;49.300;2023-02-21T00:22:54;-5.10;63.10
67557;DHT22;54387;53.526;49.300;2023-02-21T00:25:39;-5.10;63.10
67557;DHT22;54387;53.526;49.300;2023-02-21T00:28:23;-5.10;63.00
67557;DHT22;54387;53.526;49.300;2023-02-21T00:31:07;-5.10;63.00
67557;DHT22;54387;53.526;49.300;2023-02-21T00:33:52;-5.10;63.10
67557;DHT22;54387;53.526;49.300;2023-02-21T00:36:36;-5.10;63.20
67557;DHT22;54387;53.526;49.300;2023-02-21T00:39:21;-5.10;63.30
67557;DHT22;54387;53.526;49.300;2023-02-21T00:42:05;-5.00;63.30
67557;DHT22;54387;53.526;49.300;2023-02-21T00:44:50;-5.00;63.20
67557;DHT22;54387;53.526;49.300;2023-02-21T00:47:34;-5.00;63.30
67557;DHT22;54387;53.526;49.300;2023-02-21T00:50:19;-5.00;63.30
67557;DHT22;54387;53.526;49.300;2023-02-21T00:53:03;-4.90;63.30
67557;DHT22;54387;53.526;49.300;2023-02-21T00:55:48;-4.90;63.40
67557;DHT22;54387;53.526;49.300;2023-02-21T00:58:32;-4.80;63.40
67557;DHT22;54387;53.526;49.300;2023-02-21T01:01:17;-4.80;63.40
67557;DHT22;54387;53.526;49.300;2023-02-21T01:04:01;-4.80;63.30
67557;DHT22;54387;53.526;49.300;2023-02-21T01:06:49;-4.80;63.40
67557;DHT22;54387;53.526;49.300;2023-02-21T01:09:33;-4.80;63.30
67557;DHT22;54387;53.526;49.300;2023-02-21T01:12:18;-4.80;63.30
67557;DHT22;54387;53.526;49.300;2023-02-21T01:15:02;-4.80;63.40
67557;DHT22;54387;53.526;49.300;2023-02-21T01:17:47;-4.70;63.40
67557;DHT22;54387;53.526;49.300;2023-02-21T01:20:31;-4.70;63.40
67557;DHT22;54387;53.526;49.300;2023-02-21T01:23:16;-4.70;63.40
67557;DHT22;54387;53.526;49.300;2023-02-21T01:26:00;-4.60;63.40
67557;DHT22;54387;53.526;49.300;2023-02-21T01:28:46;-4.60;63.40
67557;DHT22;54387;53.526;49.300;2023-02-21T01:31:31;-4.60;63.40
67557;DHT22;54387;53.526;49.300;2023-02-21T01:34:15;-4.50;63.40
67557;DHT22;54387;53.526;49.300;2023-02-21T01:36:59;-4.50;63.40
67557;DHT22;54387;53.526;49.300;2023-02-21T01:39:44;-4.50;63.40
67557;DHT22;54387;53.526;49.300;2023-02-21T01:42:28;-4.50;63.40
67557;DHT22;54387;53.526;49.300;2023-02-21T01:48:01;-4.40;63.60
67557;DHT22;54387;53.526;49.300;2023-02-21T01:50:45;-4.40;63.60
67557;DHT22;54387;53.526;49.300;2023-02-21T01:53:30;-4.40;63.50
67557;DHT22;54387;53.526;49.300;2023-02-21T01:56:14;-4.30;63.60
67557;DHT22;54387;53.526;49.300;2023-02-21T01:58:59;-4.30;63.60
67557;DHT22;54387;53.526;49.300;2023-02-21T02:01:56;-4.20;63.60
67557;DHT22;54387;53.526;49.300;2023-02-21T02:04:41;-4.10;63.70
67557;DHT22;54387;53.526;49.300;2023-02-21T02:07:27;-4.10;63.60
67557;DHT22;54387;53.526;49.300;2023-02-21T02:10:12;-4.10;63.60
67557;DHT22;54387;53.526;49.300;2023-02-21T02:24:28;-4.10;64.30
67557;DHT22;54387;53.526;49.300;2023-02-21T02:30:00;-4.10;63.70
67557;DHT22;54387;53.526;49.300;2023-02-21T02:34:38;-4.20;63.60
67557;DHT22;54387;53.526;49.300;2023-02-21T02:42:18;-4.30;63.80
67557;DHT22;54387;53.526;49.300;2023-02-21T02:44:50;-4.30;63.80
67557;DHT22;54387;53.526;49.300;2023-02-21T02:47:22;-4.30;63.80
67557;DHT22;54387;53.526;49.300;2023-02-21T02:49:49;-4.30;63.80
67557;DHT22;54387;53.526;49.300;2023-02-21T02:52:16;-4.30;63.80
67557;DHT22;54387;53.526;49.300;2023-02-21T02:54:42;-4.30;63.90
67557;DHT22;54387;53.526;49.300;2023-02-21T02:57:08;-4.30;63.90
67557;DHT22;54387;53.526;49.300;2023-02-21T02:59:42;-4.30;63.90
67557;DHT22;54387;53.526;49.300;2023-02-21T03:02:34;-4.30;63.90
67557;DHT22;54387;53.526;49.300;2023-02-21T03:08:13;-4.30;63.90
67557;DHT22;54387;53.526;49.300;2023-02-21T03:10:20;-4.30;64.00
67557;DHT22;54387;53.526;49.300;2023-02-21T03:15:20;-4.20;63.90
67557;DHT22;54387;53.526;49.300;2023-02-21T03:17:56;-4.20;64.00
67557;DHT22;54387;53.526;49.300;2023-02-21T03:20:24;-4.20;63.90
67557;DHT22;54387;53.526;49.300;2023-02-21T03:22:50;-4.10;64.00
67557;DHT22;54387;53.526;49.300;2023-02-21T03:25:17;-4.10;63.90
67557;DHT22;54387;53.526;49.300;2023-02-21T03:27:44;-4.10;64.00
67557;DHT22;54387;53.526;49.300;2023-02-21T03:30:12;-4.10;64.00
67557;DHT22;54387;53.526;49.300;2023-02-21T03:32:40;-4.00;64.00
67557;DHT22;54387;53.526;49.300;2023-02-21T03:35:08;-4.00;64.00
67557;DHT22;54387;53.526;49.300;2023-02-21T03:40:00;-4.10;64.10
67557;DHT22;54387;53.526;49.300;2023-02-21T03:42:26;-4.10;64.10
67557;DHT22;54387;53.526;49.300;2023-02-21T03:44:52;-4.10;64.20
67557;DHT22;54387;53.526;49.300;2023-02-21T03:47:18;-4.10;64.20
67557;DHT22;54387;53.526;49.300;2023-02-21T03:49:44;-4.10;64.20
67557;DHT22;54387;53.526;49.300;2023-02-21T03:52:10;-4.00;64.20
67557;DHT22;54387;53.526;49.300;2023-02-21T03:54:39;-4.00;64.30
67557;DHT22;54387;53.526;49.300;2023-02-21T03:57:05;-4.00;64.30
67557;DHT22;54387;53.526;49.300;2023-02-21T03:59:31;-3.90;64.40
67557;DHT22;54387;53.526;49.300;2023-02-21T04:01:58;-3.80;64.50
67557;DHT22;54387;53.526;49.300;2023-02-21T04:04:24;-3.70;64.50
67557;DHT22;54387;53.526;49.300;2023-02-21T04:06:50;-3.70;64.50
67557;DHT22;54387;53.526;49.300;2023-02-21T04:09:17;-3.60;64.70
67557;DHT22;54387;53.526;49.300;2023-02-21T04:11:44;-3.50;64.70
67557;DHT22;54387;53.526;49.300;2023-02-21T04:14:10;-3.40;64.80
67557;DHT22;54387;53.526;49.300;2023-02-21T04:16:37;-3.40;64.90
67557;DHT22;54387;53.526;49.300;2023-02-21T04:19:05;-3.40;65.00
67557;DHT22;54387;53.526;49.300;2023-02-21T04:21:31;-3.30;65.00
67557;DHT22;54387;53.526;49.300;2023-02-21T04:23:57;-3.20;65.10
67557;DHT22;54387;53.526;49.300;2023-02-21T04:26:22;-3.20;65.10
67557;DHT22;54387;53.526;49.300;2023-02-21T04:28:49;-3.10;65.20
67557;DHT22;54387;53.526;49.300;2023-02-21T04:31:16;-3.10;65.20
67557;DHT22;54387;53.526;49.300;2023-02-21T04:33:42;-3.00;65.30
67557;DHT22;54387;53.526;49.300;2023-02-21T04:36:09;-3.00;65.30
67557;DHT22;54387;53.526;49.300;2023-02-21T04:38:35;-3.10;65.20
67557;DHT22;54387;53.526;49.300;2023-02-21T04:41:02;-3.00;65.40
67557;DHT22;54387;53.526;49.300;2023-02-21T04:43:28;-3.00;65.50
67557;DHT22;54387;53.526;49.300;2023-02-21T04:45:54;-3.00;65.50
67557;DHT22;54387;53.526;49.300;2023-02-21T04:48:21;-2.90;65.50
67557;DHT22;54387;53.526;49.300;2023-02-21T04:50:47;-3.00;65.50
67557;DHT22;54387;53.526;49.300;2023-02-21T04:53:13;-2.90;65.70
67557;DHT22;54387;53.526;49.300;2023-02-21T04:55:39;-2.90;65.70
67557;DHT22;54387;53.526;49.300;2023-02-21T04:58:04;-2.80;65.70
67557;DHT22;54387;53.526;49.300;2023-02-21T05:00:30;-2.80;65.70
67557;DHT22;54387;53.526;49.300;2023-02-21T05:02:57;-2.80;65.60
67557;DHT22;54387;53.526;49.300;2023-02-21T05:05:23;-2.80;65.70
67557;DHT22;54387;53.526;49.300;2023-02-21T05:07:49;-2.80;65.70
67557;DHT22;54387;53.526;49.300;2023-02-21T05:10:15;-2.70;65.90
67557;DHT22;54387;53.526;49.300;2023-02-21T05:12:42;-2.70;65.90
67557;DHT22;54387;53.526;49.300;2023-02-21T05:15:08;-2.70;66.00
67557;DHT22;54387;53.526;49.300;2023-02-21T05:17:35;-2.60;66.10
67557;DHT22;54387;53.526;49.300;2023-02-21T05:20:01;-2.50;66.00
67557;DHT22;54387;53.526;49.300;2023-02-21T05:22:28;-2.40;66.10
67557;DHT22;54387;53.526;49.300;2023-02-21T05:24:54;-2.30;66.10
67557;DHT22;54387;53.526;49.300;2023-02-21T05:27:21;-2.10;66.00
67557;DHT22;54387;53.526;49.300;2023-02-21T05:29:50;-2.10;66.00
67557;DHT22;54387;53.526;49.300;2023-02-21T05:32:18;-2.00;66.00
67557;DHT22;54387;53.526;49.300;2023-02-21T05:34:44;-1.80;66.00
67557;DHT22;54387;53.526;49.300;2023-02-21T05:37:15;-1.70;65.70
67557;DHT22;54387;53.526;49.300;2023-02-21T05:39:41;-1.60;65.70
67557;DHT22;54387;53.526;49.300;2023-02-21T05:42:08;-1.50;65.50
67557;DHT22;54387;53.526;49.300;2023-02-21T05:44:34;-1.40;65.20
67557;DHT22;54387;53.526;49.300;2023-02-21T05:47:00;-1.40;65.00
67557;DHT22;54387;53.526;49.300;2023-02-21T05:49:27;-1.50;65.00
67557;DHT22;54387;53.526;49.300;2023-02-21T05:51:53;-1.50;65.00
67557;DHT22;54387;53.526;49.300;2023-02-21T05:54:19;-1.50;64.80
67557;DHT22;54387;53.526;49.300;2023-02-21T05:56:46;-1.50;64.90
67557;DHT22;54387;53.526;49.300;2023-02-21T05:59:13;-1.50;65.10
67557;DHT22;54387;53.526;49.300;2023-02-21T06:01:39;-1.50;64.80
67557;DHT22;54387;53.526;49.300;2023-02-21T06:04:05;-1.50;65.00
67557;DHT22;54387;53.526;49.300;2023-02-21T06:06:32;-1.40;65.00
67557;DHT22;54387;53.526;49.300;2023-02-21T06:08:58;-1.30;65.10
67557;DHT22;54387;53.526;49.300;2023-02-21T06:11:28;-1.10;64.90
67557;DHT22;54387;53.526;49.300;2023-02-21T06:13:56;-1.10;64.70
67557;DHT22;54387;53.526;49.300;2023-02-21T06:16:23;-1.00;64.70
67557;DHT22;54387;53.526;49.300;2023-02-21T06:18:53;-1.00;64.40
67557;DHT22;54387;53.526;49.300;2023-02-21T06:21:19;-1.00;64.30
67557;DHT22;54387;53.526;49.300;2023-02-21T06:23:45;-1.10;64.10
67557;DHT22;54387;53.526;49.300;2023-02-21T06:26:11;-1.10;63.90
67557;DHT22;54387;53.526;49.300;2023-02-21T06:28:38;-1.20;64.00
67557;DHT22;54387;53.526;49.300;2023-02-21T06:31:04;-1.30;64.20
67557;DHT22;54387;53.526;49.300;2023-02-21T06:33:30;-1.30;64.20
67557;DHT22;54387;53.526;49.300;2023-02-21T06:35:56;-1.20;64.30
67557;DHT22;54387;53.526;49.300;2023-02-21T06:38:22;-1.10;64.50
67557;DHT22;54387;53.526;49.300;2023-02-21T06:40:48;-0.90;64.50
67557;DHT22;54387;53.526;49.300;2023-02-21T06:43:14;-0.80;64.20
67557;DHT22;54387;53.526;49.300;2023-02-21T06:45:40;-0.60;64.40
67557;DHT22;54387;53.526;49.300;2023-02-21T06:48:06;-0.50;64.10
67557;DHT22;54387;53.526;49.300;2023-02-21T06:50:35;-0.40;63.70
67557;DHT22;54387;53.526;49.300;2023-02-21T06:53:01;-0.30;63.80
67557;DHT22;54387;53.526;49.300;2023-02-21T06:55:27;-0.20;63.90
67557;DHT22;54387;53.526;49.300;2023-02-21T06:57:54;-0.10;63.70
67557;DHT22;54387;53.526;49.300;2023-02-21T07:00:20;-0.10;63.20
67557;DHT22;54387;53.526;49.300;2023-02-21T07:02:46;-0.20;62.90
67557;DHT22;54387;53.526;49.300;2023-02-21T07:05:12;-0.30;62.80
67557;DHT22;54387;53.526;49.300;2023-02-21T07:07:38;-0.30;63.30
67557;DHT22;54387;53.526;49.300;2023-02-21T07:10:04;-0.20;63.20
67557;DHT22;54387;53.526;49.300;2023-02-21T07:12:30;-0.10;63.10
67557;DHT22;54387;53.526;49.300;2023-02-21T07:14:56;-0.10;62.60
67557;DHT22;54387;53.526;49.300;2023-02-21T07:17:22;-0.10;62.90
67557;DHT22;54387;53.526;49.300;2023-02-21T07:19:48;0.00;63.00
67557;DHT22;54387;53.526;49.300;2023-02-21T07:22:14;0.10;63.00
67557;DHT22;54387;53.526;49.300;2023-02-21T07:24:40;0.10;62.60
67557;DHT22;54387;53.526;49.300;2023-02-21T07:27:06;0.00;62.80
67557;DHT22;54387;53.526;49.300;2023-02-21T07:29:32;0.00;62.20
67557;DHT22;54387;53.526;49.300;2023-02-21T07:31:58;-0.20;62.10
67557;DHT22;54387;53.526;49.300;2023-02-21T07:34:24;-0.30;62.30
67557;DHT22;54387;53.526;49.300;2023-02-21T07:36:50;-0.30;62.50
67557;DHT22;54387;53.526;49.300;2023-02-21T07:39:16;-0.30;62.50
67557;DHT22;54387;53.526;49.300;2023-02-21T07:41:42;-0.30;62.50
67557;DHT22;54387;53.526;49.300;2023-02-21T07:44:08;-0.40;62.60
67557;DHT22;54387;53.526;49.300;2023-02-21T07:46:34;-0.40;62.70
67557;DHT22;54387;53.526;49.300;2023-02-21T07:49:00;-0.30;62.80
67557;DHT22;54387;53.526;49.300;2023-02-21T07:51:28;-0.20;63.00
67557;DHT22;54387;53.526;49.300;2023-02-21T07:53:55;0.00;63.10
67557;DHT22;54387;53.526;49.300;2023-02-21T07:56:22;0.10;62.90
67557;DHT22;54387;53.526;49.300;2023-02-21T07:58:48;0.10;62.50
67557;DHT22;54387;53.526;49.300;2023-02-21T08:01:14;0.10;62.50
67557;DHT22;54387;53.526;49.300;2023-02-21T08:03:40;0.00;62.70
67557;DHT22;54387;53.526;49.300;2023-02-21T08:06:07;0.10;62.50
67557;DHT22;54387;53.526;49.300;2023-02-21T08:08:33;0.10;62.80
67557;DHT22;54387;53.526;49.300;2023-02-21T08:10:59;0.20;62.80
67557;DHT22;54387;53.526;49.300;2023-02-21T08:13:26;0.30;62.60
67557;DHT22;54387;53.526;49.300;2023-02-21T08:15:52;0.40;62.60
67557;DHT22;54387;53.526;49.300;2023-02-21T08:18:19;0.30;62.00
67557;DHT22;54387;53.526;49.300;2023-02-21T08:20:52;0.30;62.10
67557;DHT22;54387;53.526;49.300;2023-02-21T08:23:19;0.40;62.20
67557;DHT22;54387;53.526;49.300;2023-02-21T08:25:45;0.30;61.90
67557;DHT22;54387;53.526;49.300;2023-02-21T08:28:11;0.20;61.80
67557;DHT22;54387;53.526;49.300;2023-02-21T08:30:37;0.20;61.90
67557;DHT22;54387;53.526;49.300;2023-02-21T08:33:03;0.30;62.10
67557;DHT22;54387;53.526;49.300;2023-02-21T08:35:29;0.40;62.20
67557;DHT22;54387;53.526;49.300;2023-02-21T08:37:55;0.60;62.30
67557;DHT22;54387;53.526;49.300;2023-02-21T08:40:22;0.80;62.20
67557;DHT22;54387;53.526;49.300;2023-02-21T08:42:49;0.80;61.50
67557;DHT22;54387;53.526;49.300;2023-02-21T08:45:15;0.80;61.30
67557;DHT22;54387;53.526;49.300;2023-02-21T08:47:42;0.80;61.50
67557;DHT22;54387;53.526;49.300;2023-02-21T08:50:08;0.70;61.20
67557;DHT22;54387;53.526;49.300;2023-02-21T08:52:34;0.70;61.40
67557;DHT22;54387;53.526;49.300;2023-02-21T08:55:00;0.80;61.50
67557;DHT22;54387;53.526;49.300;2023-02-21T08:57:26;0.80;61.30
67557;DHT22;54387;53.526;49.300;2023-02-21T08:59:52;0.80;61.30
67557;DHT22;54387;53.526;49.300;2023-02-21T09:02:19;0.90;61.50
67557;DHT22;54387;53.526;49.300;2023-02-21T09:04:46;1.00;60.80
67557;DHT22;54387;53.526;49.300;2023-02-21T09:07:13;1.00;61.00
67557;DHT22;54387;53.526;49.300;2023-02-21T09:09:39;1.00;60.90
67557;DHT22;54387;53.526;49.300;2023-02-21T09:12:05;1.10;61.00
67557;DHT22;54387;53.526;49.300;2023-02-21T09:14:35;1.10;60.70
67557;DHT22;54387;53.526;49.300;2023-02-21T09:17:01;1.10;60.60
67557;DHT22;54387;53.526;49.300;2023-02-21T09:19:27;1.10;60.70
67557;DHT22;54387;53.526;49.300;2023-02-21T09:21:53;1.20;61.10
67557;DHT22;54387;53.526;49.300;2023-02-21T09:24:26;1.40;61.00
67557;DHT22;54387;53.526;49.300;2023-02-21T09:26:52;1.50;60.90
67557;DHT22;54387;53.526;49.300;2023-02-21T09:29:19;1.70;61.00
67557;DHT22;54387;53.526;49.300;2023-02-21T09:31:46;1.90;60.80
67557;DHT22;54387;53.526;49.300;2023-02-21T09:34:11;2.20;60.80
67557;DHT22;54387;53.526;49.300;2023-02-21T09:36:37;2.40;60.60
67557;DHT22;54387;53.526;49.300;2023-02-21T09:39:03;2.60;60.40
67557;DHT22;54387;53.526;49.300;2023-02-21T09:41:31;2.70;60.00
67557;DHT22;54387;53.526;49.300;2023-02-21T09:43:58;2.80;59.80
67557;DHT22;54387;53.526;49.300;2023-02-21T09:46:30;2.90;60.00
67557;DHT22;54387;53.526;49.300;2023-02-21T09:48:57;2.90;59.80
67557;DHT22;54387;53.526;49.300;2023-02-21T09:51:23;2.80;59.30
67557;DHT22;54387;53.526;49.300;2023-02-21T09:53:51;2.80;59.90
67557;DHT22;54387;53.526;49.300;2023-02-21T09:58:50;3.20;59.40
67557;DHT22;54387;53.526;49.300;2023-02-21T10:03:43;3.40;59.10
67557;DHT22;54387;53.526;49.300;2023-02-21T10:06:18;4.10;57.40
67557;DHT22;54387;53.526;49.300;2023-02-21T10:08:48;4.80;57.70
67557;DHT22;54387;53.526;49.300;2023-02-21T10:16:31;6.50;51.50
67557;DHT22;54387;53.526;49.300;2023-02-21T10:19:42;6.80;51.60
67557;DHT22;54387;53.526;49.300;2023-02-21T10:21:51;6.80;51.30
67557;DHT22;54387;53.526;49.300;2023-02-21T10:24:19;6.80;51.10
67557;DHT22;54387;53.526;49.300;2023-02-21T10:26:47;6.80;51.80
67557;DHT22;54387;53.526;49.300;2023-02-21T10:29:22;6.90;50.90
67557;DHT22;54387;53.526;49.300;2023-02-21T10:31:56;6.90;50.10
67557;DHT22;54387;53.526;49.300;2023-02-21T10:34:25;7.00;49.90
67557;DHT22;54387;53.526;49.300;2023-02-21T10:36:52;6.70;50.40
67557;DHT22;54387;53.526;49.300;2023-02-21T10:39:20;6.90;51.30
67557;DHT22;54387;53.526;49.300;2023-02-21T10:41:46;7.80;51.80
67557;DHT22;54387;53.526;49.300;2023-02-21T10:44:17;8.60;49.20
67557;DHT22;54387;53.526;49.300;2023-02-21T10:46:44;7.70;44.90
67557;DHT22;54387;53.526;49.300;2023-02-21T10:49:23;6.50;47.20
67557;DHT22;54387;53.526;49.300;2023-02-21T10:55:02;4.50;49.00
67557;DHT22;54387;53.526;49.300;2023-02-21T10:57:30;3.60;50.70
67557;DHT22;54387;53.526;49.300;2023-02-21T10:59:56;3.30;52.40
67557;DHT22;54387;53.526;49.300;2023-02-21T11:04:55;3.10;53.80
67557;DHT22;54387;53.526;49.300;2023-02-21T11:07:21;3.20;54.30
67557;DHT22;54387;53.526;49.300;2023-02-21T11:09:49;3.10;54.20
67557;DHT22;54387;53.526;49.300;2023-02-21T11:12:17;3.00;54.60
67557;DHT22;54387;53.526;49.300;2023-02-21T11:17:21;3.00;54.00
67557;DHT22;54387;53.526;49.300;2023-02-21T11:19:52;2.80;53.90
67557;DHT22;54387;53.526;49.300;2023-02-21T11:22:25;2.60;54.10
67557;DHT22;54387;53.526;49.300;2023-02-21T11:27:46;1.90;56.20
67557;DHT22;54387;53.526;49.300;2023-02-21T11:30:22;1.90;56.80
67557;DHT22;54387;53.526;49.300;2023-02-21T11:32:53;1.80;57.10
67557;DHT22;54387;53.526;49.300;2023-02-21T11:37:49;1.80;57.60
67557;DHT22;54387;53.526;49.300;2023-02-21T11:40:30;1.70;57.90
67557;DHT22;54387;53.526;49.300;2023-02-21T11:43:10;1.80;58.00
67557;DHT22;54387;53.526;49.300;2023-02-21T11:45:40;1.90;58.30
67557;DHT22;54387;53.526;49.300;2023-02-21T11:48:10;2.20;57.90
67557;DHT22;54387;53.526;49.300;2023-02-21T11:50:39;2.50;58.00
67557;DHT22;54387;53.526;49.300;2023-02-21T11:53:19;2.80;57.10
67557;DHT22;54387;53.526;49.300;2023-02-21T11:55:50;2.80;55.90
67557;DHT22;54387;53.526;49.300;2023-02-21T11:58:22;2.80;55.60
67557;DHT22;54387;53.526;49.300;2023-02-21T12:01:00;2.70;55.80
67557;DHT22;54387;53.526;49.300;2023-02-21T12:06:09;2.80;56.70
67557;DHT22;54387;53.526;49.300;2023-02-21T12:08:55;2.90;56.80
67557;DHT22;54387;53.526;49.300;2023-02-21T12:11:31;2.80;56.40
67557;DHT22;54387;53.526;49.300;2023-02-21T12:26:50;1.50;57.60
67557;DHT22;54387;53.526;49.300;2023-02-21T12:39:45;0.80;59.90
67557;DHT22;54387;53.526;49.300;2023-02-21T12:47:48;1.20;60.20
67557;DHT22;54387;53.526;49.300;2023-02-21T12:50:29;1.30;60.20
67557;DHT22;54387;53.526;49.300;2023-02-21T12:53:09;1.30;60.00
67557;DHT22;54387;53.526;49.300;2023-02-21T12:58:32;1.20;60.00
67557;DHT22;54387;53.526;49.300;2023-02-21T13:01:01;1.20;60.20
67557;DHT22;54387;53.526;49.300;2023-02-21T13:06:01;1.20;60.30
67557;DHT22;54387;53.526;49.300;2023-02-21T13:08:37;1.10;60.00
67557;DHT22;54387;53.526;49.300;2023-02-21T13:11:16;1.00;60.20
67557;DHT22;54387;53.526;49.300;2023-02-21T13:13:43;0.90;60.20
67557;DHT22;54387;53.526;49.300;2023-02-21T13:16:10;0.80;60.40
67557;DHT22;54387;53.526;49.300;2023-02-21T13:18:45;0.80;61.00
67557;DHT22;54387;53.526;49.300;2023-02-21T13:23:44;0.70;60.50
67557;DHT22;54387;53.526;49.300;2023-02-21T13:26:24;0.60;60.60
67557;DHT22;54387;53.526;49.300;2023-02-21T13:28:53;0.60;60.70
67557;DHT22;54387;53.526;49.300;2023-02-21T13:31:24;0.60;60.80
67557;DHT22;54387;53.526;49.300;2023-02-21T13:33:51;0.60;60.90
67557;DHT22;54387;53.526;49.300;2023-02-21T13:38:57;0.40;60.90
67557;DHT22;54387;53.526;49.300;2023-02-21T13:41:25;0.30;61.10
67557;DHT22;54387;53.526;49.300;2023-02-21T13:43:53;0.20;61.20
67557;DHT22;54387;53.526;49.300;2023-02-21T13:51:46;-0.10;61.50
67557;DHT22;54387;53.526;49.300;2023-02-21T13:54:12;-0.30;61.60
67557;DHT22;54387;53.526;49.300;2023-02-21T13:56:47;-0.40;61.60
67557;DHT22;54387;53.526;49.300;2023-02-21T14:01:49;-0.60;61.70
67557;DHT22;54387;53.526;49.300;2023-02-21T14:07:01;-0.90;61.80
67557;DHT22;54387;53.526;49.300;2023-02-21T14:09:27;-1.10;61.80
67557;DHT22;54387;53.526;49.300;2023-02-21T14:11:54;-1.20;61.90
67557;DHT22;54387;53.526;49.300;2023-02-21T14:14:28;-1.40;62.00
67557;DHT22;54387;53.526;49.300;2023-02-21T14:17:00;-1.50;62.10
67557;DHT22;54387;53.526;49.300;2023-02-21T14:22:03;-1.70;62.20
67557;DHT22;54387;53.526;49.300;2023-02-21T14:24:35;-1.80;62.20
67557;DHT22;54387;53.526;49.300;2023-02-21T14:29:35;-2.00;62.40
67557;DHT22;54387;53.526;49.300;2023-02-21T14:37:20;-2.10;62.70
67557;DHT22;54387;53.526;49.300;2023-02-21T14:39:51;-2.00;62.90
67557;DHT22;54387;53.526;49.300;2023-02-21T14:49:58;-1.90;63.00
67557;DHT22;54387;53.526;49.300;2023-02-21T15:03:04;-1.70;63.10
67557;DHT22;54387;53.526;49.300;2023-02-21T15:05:22;-1.60;63.20
67557;DHT22;54387;53.526;49.300;2023-02-21T15:10:38;-1.60;63.40
67557;DHT22;54387;53.526;49.300;2023-02-21T15:13:03;-1.50;63.50
67557;DHT22;54387;53.526;49.300;2023-02-21T15:18:03;-1.30;63.50
67557;DHT22;54387;53.526;49.300;2023-02-21T15:20:30;-1.30;63.40
67557;DHT22;54387;53.526;49.300;2023-02-21T15:22:58;-1.20;63.40
67557;DHT22;54387;53.526;49.300;2023-02-21T15:25:25;-1.30;63.40
67557;DHT22;54387;53.526;49.300;2023-02-21T15:27:55;-1.20;63.40
67557;DHT22;54387;53.526;49.300;2023-02-21T15:30:24;-1.20;63.40
67557;DHT22;54387;53.526;49.300;2023-02-21T15:33:03;-1.10;63.50
67557;DHT22;54387;53.526;49.300;2023-02-21T15:35:56;-1.10;63.50
67557;DHT22;54387;53.526;49.300;2023-02-21T15:40:57;-1.00;63.60
67557;DHT22;54387;53.526;49.300;2023-02-21T15:43:30;-1.00;63.60
67557;DHT22;54387;53.526;49.300;2023-02-21T15:45:58;-0.90;63.60
67557;DHT22;54387;53.526;49.300;2023-02-21T15:48:25;-0.90;63.70
67557;DHT22;54387;53.526;49.300;2023-02-21T15:50:51;-0.90;63.70
67557;DHT22;54387;53.526;49.300;2023-02-21T15:53:19;-0.80;64.40
67557;DHT22;54387;53.526;49.300;2023-02-21T15:55:45;-0.80;63.80
67557;DHT22;54387;53.526;49.300;2023-02-21T15:58:14;-0.70;63.80
67557;DHT22;54387;53.526;49.300;2023-02-21T16:05:54;-0.70;63.90
67557;DHT22;54387;53.526;49.300;2023-02-21T16:08:21;-0.70;64.00
67557;DHT22;54387;53.526;49.300;2023-02-21T16:10:47;-0.80;64.00
67557;DHT22;54387;53.526;49.300;2023-02-21T16:13:14;-0.80;64.10
67557;DHT22;54387;53.526;49.300;2023-02-21T16:15:40;-0.80;64.20
67557;DHT22;54387;53.526;49.300;2023-02-21T16:18:09;-0.80;64.30
67557;DHT22;54387;53.526;49.300;2023-02-21T16:20:37;-0.80;64.30
67557;DHT22;54387;53.526;49.300;2023-02-21T16:25:56;-0.80;64.40
67557;DHT22;54387;53.526;49.300;2023-02-21T16:28:23;-0.70;64.50
67557;DHT22;54387;53.526;49.300;2023-02-21T16:30:50;-0.80;64.40
67557;DHT22;54387;53.526;49.300;2023-02-21T16:33:19;-0.80;64.40
67557;DHT22;54387;53.526;49.300;2023-02-21T16:35:46;-0.80;64.40
67557;DHT22;54387;53.526;49.300;2023-02-21T16:38:13;-0.70;64.50
67557;DHT22;54387;53.526;49.300;2023-02-21T16:40:40;-0.80;64.30
67557;DHT22;54387;53.526;49.300;2023-02-21T16:43:06;-0.80;64.30
67557;DHT22;54387;53.526;49.300;2023-02-21T16:45:33;-0.80;64.40
67557;DHT22;54387;53.526;49.300;2023-02-21T16:48:05;-0.90;64.50
67557;DHT22;54387;53.526;49.300;2023-02-21T16:50:32;-0.90;64.40
67557;DHT22;54387;53.526;49.300;2023-02-21T16:52:59;-0.90;64.50
67557;DHT22;54387;53.526;49.300;2023-02-21T16:55:26;-1.00;64.70
67557;DHT22;54387;53.526;49.300;2023-02-21T16:57:53;-1.00;64.80
67557;DHT22;54387;53.526;49.300;2023-02-21T17:00:20;-1.00;64.80
67557;DHT22;54387;53.526;49.300;2023-02-21T17:02:48;-1.00;64.90
67557;DHT22;54387;53.526;49.300;2023-02-21T17:05:14;-1.10;64.90
67557;DHT22;54387;53.526;49.300;2023-02-21T17:07:41;-1.00;64.90
67557;DHT22;54387;53.526;49.300;2023-02-21T17:10:07;-1.00;64.90
67557;DHT22;54387;53.526;49.300;2023-02-21T17:12:34;-1.10;64.90
67557;DHT22;54387;53.526;49.300;2023-02-21T17:15:00;-1.10;64.90
67557;DHT22;54387;53.526;49.300;2023-02-21T17:17:26;-1.10;65.00
67557;DHT22;54387;53.526;49.300;2023-02-21T17:19:53;-1.20;65.10
67557;DHT22;54387;53.526;49.300;2023-02-21T17:22:19;-1.20;65.10
67557;DHT22;54387;53.526;49.300;2023-02-21T17:24:46;-1.20;65.30
67557;DHT22;54387;53.526;49.300;2023-02-21T17:27:13;-1.20;65.20
67557;DHT22;54387;53.526;49.300;2023-02-21T17:29:39;-1.10;65.30
67557;DHT22;54387;53.526;49.300;2023-02-21T17:32:05;-1.10;65.20
67557;DHT22;54387;53.526;49.300;2023-02-21T17:34:32;-1.10;65.20
67557;DHT22;54387;53.526;49.300;2023-02-21T17:36:58;-1.20;65.20
67557;DHT22;54387;53.526;49.300;2023-02-21T17:39:25;-1.20;65.30
67557;DHT22;54387;53.526;49.300;2023-02-21T17:41:51;-1.30;65.30
67557;DHT22;54387;53.526;49.300;2023-02-21T17:44:18;-1.20;65.40
67557;DHT22;54387;53.526;49.300;2023-02-21T17:46:45;-1.20;65.40
67557;DHT22;54387;53.526;49.300;2023-02-21T17:49:14;-1.30;65.40
67557;DHT22;54387;53.526;49.300;2023-02-21T17:51:42;-1.30;65.40
67557;DHT22;54387;53.526;49.300;2023-02-21T17:54:08;-1.30;65.40
67557;DHT22;54387;53.526;49.300;2023-02-21T17:56:34;-1.30;65.50
67557;DHT22;54387;53.526;49.300;2023-02-21T17:59:01;-1.30;65.50
67557;DHT22;54387;53.526;49.300;2023-02-21T18:01:27;-1.30;65.60
67557;DHT22;54387;53.526;49.300;2023-02-21T18:03:54;-1.30;65.70
67557;DHT22;54387;53.526;49.300;2023-02-21T18:06:20;-1.30;65.60
67557;DHT22;54387;53.526;49.300;2023-02-21T18:08:47;-1.30;65.60
67557;DHT22;54387;53.526;49.300;2023-02-21T18:11:14;-1.30;65.70